Geldermalsen, Netherlands
Current Conditions -  °F | °C
As of 7:25 PM on Tuesday 21 Oct 2014 (Local Time) from EHVK Reporting Station
Thunderstorm Thunderstorm  
Wind Chill: 50°   Ceiling: Unl
Heat Index: 50°   Visibility: 6mi
Dew Point: 41°   Wind: 14mph
Humidity: 71%   Direction: 270°W
Pressure: 29.62"   Gusts: NA
Location:  51.88°N, 5.29°E
Report Text: EHVK 211725Z AUTO 27012KT 9999 TS FEW019CB SCT048 10/05 Q1003 BLU
Loading
Personal Weather Stations






























Interactive Weather Map
Tropical Storm Tracking
New forecast layout! Learn more

10-Day Weather Forecast

Advertisements
Track Severe Weather on mobile